createdAt,value
2019-05-18T00:00:36.231Z,6.90
2019-05-18T00:04:43.104Z,6.10
2019-05-18T00:08:49.820Z,6.63
2019-05-18T00:12:56.524Z,6.53
2019-05-18T00:17:03.309Z,7.37
2019-05-18T00:21:09.969Z,6.43
2019-05-18T00:25:16.684Z,6.47
2019-05-18T00:29:23.414Z,6.33
2019-05-18T00:33:30.314Z,6.80
2019-05-18T00:37:37.081Z,7.20
2019-05-18T00:41:45.593Z,7.60
2019-05-18T00:45:52.419Z,7.17
2019-05-18T00:49:59.210Z,7.50
2019-05-18T00:54:06.017Z,7.17
2019-05-18T00:58:12.794Z,6.97
2019-05-18T01:02:19.548Z,7.33
2019-05-18T01:06:26.286Z,6.70
2019-05-18T01:10:32.989Z,6.77
2019-05-18T01:14:39.739Z,6.77
2019-05-18T01:18:46.457Z,8.63
2019-05-18T01:22:53.295Z,6.93
2019-05-18T01:27:00.448Z,7.90
2019-05-18T01:31:07.328Z,8.37
2019-05-18T01:35:14.307Z,8.57
2019-05-18T01:39:21.074Z,8.60
2019-05-18T01:43:27.964Z,9.27
2019-05-18T01:47:34.723Z,9.57
2019-05-18T01:51:41.501Z,8.83
2019-05-18T01:55:48.330Z,8.67
2019-05-18T01:59:55.135Z,8.23
2019-05-18T02:04:01.822Z,8.80
2019-05-18T02:08:08.711Z,9.47
2019-05-18T02:12:15.459Z,8.77
2019-05-18T02:16:23.219Z,9.20
2019-05-18T02:20:30.295Z,9.67
2019-05-18T02:24:40.038Z,9.97
2019-05-18T02:28:46.828Z,9.27
2019-05-18T02:32:53.588Z,9.33
2019-05-18T02:37:00.302Z,9.63
2019-05-18T02:41:08.085Z,9.10
2019-05-18T02:45:15.191Z,9.73
2019-05-18T02:49:22.950Z,10.43
2019-05-18T02:53:29.673Z,10.17
2019-05-18T02:57:36.349Z,10.53
2019-05-18T03:01:43.093Z,10.00
2019-05-18T03:05:49.790Z,10.53
2019-05-18T03:09:56.615Z,12.03
2019-05-18T03:14:03.487Z,12.73
2019-05-18T03:18:11.223Z,14.60
2019-05-18T03:22:18.093Z,13.50
2019-05-18T03:26:24.912Z,13.33
2019-05-18T03:30:32.001Z,14.57
2019-05-18T03:34:39.060Z,12.30
2019-05-18T03:38:46.059Z,11.60
2019-05-18T03:42:53.124Z,12.13
2019-05-18T03:47:00.206Z,12.97
2019-05-18T03:51:07.532Z,13.20
2019-05-18T03:55:14.691Z,12.93
2019-05-18T03:59:21.645Z,15.17
2019-05-18T04:03:28.644Z,13.43
2019-05-18T04:07:35.794Z,14.47
2019-05-18T04:11:42.928Z,14.07
2019-05-18T04:15:50.641Z,16.27
2019-05-18T04:19:57.475Z,15.33
2019-05-18T04:24:04.275Z,15.50
2019-05-18T04:28:11.012Z,19.53
2019-05-18T04:32:19.212Z,17.87
2019-05-18T04:36:25.918Z,17.10
2019-05-18T04:40:32.650Z,15.93
2019-05-18T04:44:39.356Z,17.60
2019-05-18T04:48:46.124Z,15.93
2019-05-18T04:52:52.913Z,16.67
2019-05-18T04:56:59.622Z,16.97
2019-05-18T05:01:06.343Z,17.47
2019-05-18T05:05:13.104Z,17.97
2019-05-18T05:09:19.880Z,18.33
2019-05-18T05:13:26.644Z,18.30
2019-05-18T05:17:33.557Z,17.17
2019-05-18T05:21:41.518Z,19.23
2019-05-18T05:25:48.391Z,18.87
2019-05-18T05:29:57.230Z,16.13
2019-05-18T05:34:04.906Z,16.73
2019-05-18T05:38:11.613Z,16.00
2019-05-18T05:42:21.030Z,15.20
2019-05-18T05:46:27.737Z,15.20
2019-05-18T05:50:36.810Z,17.20
2019-05-18T05:54:43.817Z,14.40
2019-05-18T05:58:50.895Z,14.07
2019-05-18T06:02:59.057Z,13.07
2019-05-18T06:07:08.892Z,13.77
2019-05-18T06:11:15.782Z,12.90
2019-05-18T06:15:22.899Z,13.70
2019-05-18T06:19:30.538Z,14.17
2019-05-18T06:23:40.521Z,13.07
2019-05-18T06:27:47.289Z,14.27
2019-05-18T06:31:59.725Z,13.50
2019-05-18T06:36:06.499Z,12.40
2019-05-18T06:40:13.372Z,12.63
2019-05-18T06:44:20.081Z,13.63
2019-05-18T06:48:26.874Z,14.00
2019-05-18T06:52:33.600Z,13.23
2019-05-18T06:56:41.817Z,12.93
2019-05-18T07:00:48.511Z,11.87
2019-05-18T07:04:55.245Z,10.73
2019-05-18T07:09:02.090Z,10.87
2019-05-18T07:13:10.434Z,9.73
2019-05-18T07:17:17.315Z,10.87
2019-05-18T07:21:24.008Z,10.30
2019-05-18T07:25:30.787Z,9.80
2019-05-18T07:29:37.480Z,9.47
2019-05-18T07:33:44.313Z,11.63
2019-05-18T07:37:53.168Z,10.37
2019-05-18T07:42:00.256Z,9.20
2019-05-18T07:46:08.821Z,9.27
2019-05-18T07:50:16.050Z,8.60
2019-05-18T07:54:22.854Z,8.70
2019-05-18T07:58:29.603Z,8.87
2019-05-18T08:02:36.328Z,9.27
2019-05-18T08:06:50.271Z,9.17
2019-05-18T08:10:57.517Z,9.17
2019-05-18T08:15:06.657Z,8.03
2019-05-18T08:19:13.399Z,7.27
2019-05-18T08:23:20.135Z,7.90
2019-05-18T08:27:30.652Z,8.33
2019-05-18T08:31:36.985Z,7.23
2019-05-18T08:35:43.720Z,7.70
2019-05-18T08:39:50.643Z,6.97
2019-05-18T08:43:57.419Z,14.37
2019-05-18T08:48:04.356Z,8.03
2019-05-18T08:52:11.132Z,7.73
2019-05-18T08:56:20.551Z,7.87
2019-05-18T09:00:27.449Z,7.13
2019-05-18T09:04:36.267Z,7.63
2019-05-18T09:08:45.974Z,7.77
2019-05-18T09:12:52.733Z,7.67
2019-05-18T09:16:59.697Z,7.70
2019-05-18T09:21:06.637Z,7.23
2019-05-18T09:25:15.357Z,7.00
2019-05-18T09:29:22.507Z,6.00
2019-05-18T09:33:30.213Z,6.10
2019-05-18T09:37:36.927Z,6.50
2019-05-18T09:41:47.538Z,5.77
2019-05-18T09:45:57.019Z,5.13
2019-05-18T09:50:05.175Z,5.90
2019-05-18T09:54:11.922Z,6.20
2019-05-18T09:58:18.696Z,6.40
2019-05-18T10:02:25.466Z,5.63
2019-05-18T10:06:32.285Z,5.33
2019-05-18T10:10:39.021Z,5.33
2019-05-18T10:14:45.927Z,4.27
2019-05-18T10:18:55.590Z,3.67
2019-05-18T10:23:12.842Z,4.20
2019-05-18T10:27:16.670Z,5.27
2019-05-18T10:31:23.485Z,4.13
2019-05-18T10:35:30.231Z,3.87
2019-05-18T10:39:38.837Z,4.37
2019-05-18T10:43:47.320Z,3.83
2019-05-18T10:47:54.200Z,3.60
2019-05-18T10:52:00.964Z,3.50
2019-05-18T10:56:10.420Z,4.20
2019-05-18T11:00:20.636Z,4.00
2019-05-18T11:04:27.397Z,4.33
2019-05-18T11:08:34.126Z,3.97
2019-05-18T11:12:41.386Z,3.80
2019-05-18T11:16:48.675Z,3.43
2019-05-18T11:20:58.504Z,4.00
2019-05-18T11:25:05.775Z,3.60
2019-05-18T11:29:12.516Z,4.20
2019-05-18T11:33:19.196Z,4.33
2019-05-18T11:37:26.000Z,3.73
2019-05-18T11:41:32.795Z,4.00
2019-05-18T11:45:39.693Z,3.40
2019-05-18T11:49:48.740Z,4.07
2019-05-18T11:53:58.384Z,5.70
2019-05-18T11:58:04.049Z,4.43
2019-05-18T12:02:11.751Z,4.33
2019-05-18T12:06:18.525Z,4.60
2019-05-18T12:10:26.825Z,3.83
2019-05-18T12:14:33.762Z,3.93
2019-05-18T12:18:44.207Z,3.80
2019-05-18T12:22:50.952Z,4.20
2019-05-18T12:26:57.715Z,3.97
2019-05-18T12:31:04.757Z,3.57
2019-05-18T12:35:13.911Z,4.30
2019-05-18T12:39:23.617Z,3.60
2019-05-18T12:43:30.986Z,4.10
2019-05-18T12:47:37.806Z,4.33
2019-05-18T12:51:44.577Z,3.47
2019-05-18T12:55:54.678Z,3.77
2019-05-18T13:00:01.452Z,3.97
2019-05-18T13:04:15.027Z,3.90
2019-05-18T13:08:21.791Z,3.63
2019-05-18T13:12:28.493Z,3.97
2019-05-18T13:16:36.779Z,3.00
2019-05-18T13:20:51.245Z,3.40
2019-05-18T13:24:59.542Z,4.73
2019-05-18T13:29:10.489Z,3.80
2019-05-18T13:33:26.472Z,3.90
2019-05-18T13:37:33.279Z,3.47
2019-05-18T13:41:41.294Z,4.40
2019-05-18T13:45:50.019Z,3.53
2019-05-18T13:49:58.349Z,3.37
2019-05-18T13:54:12.602Z,2.70
2019-05-18T13:58:21.196Z,3.23
2019-05-18T14:02:28.234Z,3.20
2019-05-18T14:06:35.319Z,3.30
2019-05-18T14:10:51.786Z,3.10
2019-05-18T14:15:07.633Z,3.33
2019-05-18T14:19:14.457Z,3.10
2019-05-18T14:23:21.221Z,3.70
2019-05-18T14:27:27.958Z,2.70
2019-05-18T14:31:34.671Z,3.57
2019-05-18T14:35:41.555Z,3.20
2019-05-18T14:39:49.340Z,2.67
2019-05-18T14:44:01.879Z,3.33
2019-05-18T14:48:11.613Z,3.63
2019-05-18T14:52:19.543Z,3.00
2019-05-18T14:56:28.084Z,3.10
2019-05-18T15:00:34.844Z,5.97
2019-05-18T15:04:43.316Z,3.03
2019-05-18T15:08:50.099Z,3.00
2019-05-18T15:12:56.784Z,3.33
2019-05-18T15:17:09.548Z,2.93
2019-05-18T15:21:25.155Z,3.40
2019-05-18T15:25:31.875Z,3.57
2019-05-18T15:29:39.751Z,3.30
2019-05-18T15:33:46.622Z,4.37
2019-05-18T15:37:53.392Z,3.93
2019-05-18T15:42:00.156Z,3.70
2019-05-18T15:46:07.029Z,4.03
2019-05-18T15:50:14.329Z,4.60
2019-05-18T15:54:21.992Z,3.73
2019-05-18T15:58:28.719Z,7.40
2019-05-18T16:02:35.609Z,4.87
2019-05-18T16:06:43.476Z,4.33
2019-05-18T16:10:50.251Z,4.90
2019-05-18T16:14:56.915Z,5.47
2019-05-18T16:19:03.870Z,5.27
2019-05-18T16:23:10.601Z,6.87
2019-05-18T16:27:17.497Z,6.03
2019-05-18T16:31:24.333Z,6.00
2019-05-18T16:35:31.491Z,4.97
2019-05-18T16:39:38.284Z,5.30
2019-05-18T16:43:46.184Z,5.47
2019-05-18T16:47:52.908Z,4.53
2019-05-18T16:51:59.745Z,4.00
2019-05-18T16:56:06.500Z,4.03
2019-05-18T17:00:16.163Z,3.63
2019-05-18T17:04:25.153Z,3.17
2019-05-18T17:08:31.932Z,4.30
2019-05-18T17:12:38.700Z,3.40
2019-05-18T17:16:45.628Z,4.07
2019-05-18T17:20:52.524Z,6.07
2019-05-18T17:24:59.435Z,6.50
2019-05-18T17:29:06.273Z,4.13
2019-05-18T17:33:13.014Z,4.00
2019-05-18T17:37:19.807Z,4.10
2019-05-18T17:41:26.590Z,5.27
2019-05-18T17:45:33.653Z,5.50
2019-05-18T17:49:42.295Z,4.70
2019-05-18T17:53:49.182Z,7.00
2019-05-18T17:57:55.964Z,7.27
2019-05-18T18:02:07.363Z,7.17
2019-05-18T18:06:16.997Z,6.73
2019-05-18T18:10:30.659Z,6.57
2019-05-18T18:14:38.678Z,6.77
2019-05-18T18:18:50.359Z,5.20
2019-05-18T18:22:56.807Z,5.83
2019-05-18T18:27:03.756Z,6.27
2019-05-18T18:31:10.677Z,6.17
2019-05-18T18:35:22.412Z,6.10
2019-05-18T18:39:29.138Z,4.63
2019-05-18T18:43:35.892Z,5.67
2019-05-18T18:47:43.677Z,3.77
2019-05-18T18:51:52.037Z,2.90
2019-05-18T18:55:58.856Z,3.77
2019-05-18T19:00:07.352Z,3.60
2019-05-18T19:04:14.153Z,2.80
2019-05-18T19:08:20.899Z,4.30
2019-05-18T19:12:27.640Z,4.53
2019-05-18T19:16:36.213Z,3.50
2019-05-18T19:21:21.046Z,3.00
2019-05-18T19:25:29.521Z,4.07
2019-05-18T19:29:45.344Z,3.57
2019-05-18T19:33:54.969Z,2.93
2019-05-18T19:38:02.547Z,3.10
2019-05-18T19:42:09.405Z,3.93
2019-05-18T19:46:16.246Z,3.40
2019-05-18T19:50:23.099Z,3.47
2019-05-18T19:54:29.941Z,3.20
2019-05-18T19:58:37.915Z,3.40
2019-05-18T20:02:44.722Z,3.93
2019-05-18T20:06:51.496Z,4.57
2019-05-18T20:10:58.380Z,3.70
2019-05-18T20:15:09.165Z,3.87
2019-05-18T20:19:14.101Z,4.00
2019-05-18T20:23:20.962Z,4.30
2019-05-18T20:27:27.681Z,6.07
2019-05-18T20:31:34.486Z,4.20
2019-05-18T20:35:41.337Z,4.20
2019-05-18T20:39:48.111Z,4.30
2019-05-18T20:43:55.008Z,4.27
2019-05-18T20:48:01.798Z,4.90
2019-05-18T20:52:08.765Z,4.27
2019-05-18T20:56:15.522Z,5.00
2019-05-18T21:00:22.701Z,4.90
2019-05-18T21:04:29.768Z,4.90
2019-05-18T21:08:36.970Z,5.50
2019-05-18T21:12:43.849Z,5.10
2019-05-18T21:16:50.729Z,4.90
2019-05-18T21:20:57.478Z,5.50
2019-05-18T21:25:04.370Z,5.43
2019-05-18T21:29:11.132Z,6.20
2019-05-18T21:33:17.879Z,6.20
2019-05-18T21:37:24.580Z,4.63
2019-05-18T21:41:34.388Z,5.23
2019-05-18T21:45:41.159Z,5.20
2019-05-18T21:49:50.368Z,6.30
2019-05-18T21:53:57.230Z,5.90
2019-05-18T21:58:03.992Z,7.27
2019-05-18T22:02:10.979Z,7.83
2019-05-18T22:06:17.803Z,9.50
2019-05-18T22:10:26.047Z,8.93
2019-05-18T22:14:33.097Z,8.10
2019-05-18T22:18:39.989Z,7.73
2019-05-18T22:22:46.827Z,8.33
2019-05-18T22:26:53.619Z,7.20
2019-05-18T22:31:00.424Z,6.90
2019-05-18T22:35:08.034Z,7.10
2019-05-18T22:39:14.715Z,6.57
2019-05-18T22:43:21.580Z,7.37
2019-05-18T22:47:28.304Z,8.90
2019-05-18T22:51:35.026Z,7.97
2019-05-18T22:55:41.872Z,9.00
2019-05-18T22:59:48.644Z,7.77
2019-05-18T23:03:56.039Z,9.17
2019-05-18T23:08:02.770Z,8.33
2019-05-18T23:12:09.444Z,9.30
2019-05-18T23:16:16.197Z,10.47
2019-05-18T23:20:22.962Z,11.47
2019-05-18T23:24:29.707Z,10.67
2019-05-18T23:28:36.691Z,9.97
2019-05-18T23:32:43.446Z,10.47
2019-05-18T23:36:51.265Z,10.13
2019-05-18T23:40:57.959Z,9.50
2019-05-18T23:45:04.777Z,9.90
2019-05-18T23:49:12.644Z,10.60
2019-05-18T23:53:19.621Z,10.13
2019-05-18T23:57:26.779Z,9.77
